sensor_id;sensor_type;location;lat;lon;timestamp;P1;durP1;ratioP1;P2;durP2;ratioP2
26951;SDS011;14507;52.418;13.398;2023-04-09T00:01:47;56.28;;;31.52;;
26951;SDS011;14507;52.418;13.398;2023-04-09T00:04:13;62.50;;;32.80;;
26951;SDS011;14507;52.418;13.398;2023-04-09T00:06:39;57.30;;;31.15;;
26951;SDS011;14507;52.418;13.398;2023-04-09T00:09:05;58.15;;;30.80;;
26951;SDS011;14507;52.418;13.398;2023-04-09T00:11:30;55.72;;;31.40;;
26951;SDS011;14507;52.418;13.398;2023-04-09T00:13:56;56.05;;;32.38;;
26951;SDS011;14507;52.418;13.398;2023-04-09T00:16:22;57.47;;;31.73;;
26951;SDS011;14507;52.418;13.398;2023-04-09T00:18:48;53.42;;;29.92;;
26951;SDS011;14507;52.418;13.398;2023-04-09T00:21:13;58.72;;;31.65;;
26951;SDS011;14507;52.418;13.398;2023-04-09T00:23:40;59.22;;;31.67;;
26951;SDS011;14507;52.418;13.398;2023-04-09T00:26:06;55.85;;;30.15;;
26951;SDS011;14507;52.418;13.398;2023-04-09T00:28:32;58.17;;;31.88;;
26951;SDS011;14507;52.418;13.398;2023-04-09T00:30:58;58.38;;;32.95;;
26951;SDS011;14507;52.418;13.398;2023-04-09T00:33:23;56.20;;;31.60;;
26951;SDS011;14507;52.418;13.398;2023-04-09T00:35:49;61.13;;;33.05;;
26951;SDS011;14507;52.418;13.398;2023-04-09T00:38:15;63.10;;;32.58;;
26951;SDS011;14507;52.418;13.398;2023-04-09T00:40:41;61.05;;;33.75;;
26951;SDS011;14507;52.418;13.398;2023-04-09T00:43:07;56.80;;;31.58;;
26951;SDS011;14507;52.418;13.398;2023-04-09T00:45:32;55.55;;;31.98;;
26951;SDS011;14507;52.418;13.398;2023-04-09T00:47:58;64.45;;;33.78;;
26951;SDS011;14507;52.418;13.398;2023-04-09T00:50:23;58.42;;;32.67;;
26951;SDS011;14507;52.418;13.398;2023-04-09T00:52:50;64.10;;;33.40;;
26951;SDS011;14507;52.418;13.398;2023-04-09T00:55:16;65.78;;;32.58;;
26951;SDS011;14507;52.418;13.398;2023-04-09T00:57:42;58.83;;;32.42;;
26951;SDS011;14507;52.418;13.398;2023-04-09T01:00:08;60.40;;;32.47;;
26951;SDS011;14507;52.418;13.398;2023-04-09T01:02:35;65.82;;;33.35;;
26951;SDS011;14507;52.418;13.398;2023-04-09T01:05:01;61.80;;;33.63;;
26951;SDS011;14507;52.418;13.398;2023-04-09T01:07:35;58.95;;;32.30;;
26951;SDS011;14507;52.418;13.398;2023-04-09T01:10:31;59.35;;;33.13;;
26951;SDS011;14507;52.418;13.398;2023-04-09T01:13:15;60.50;;;33.42;;
26951;SDS011;14507;52.418;13.398;2023-04-09T01:15:55;64.82;;;33.05;;
26951;SDS011;14507;52.418;13.398;2023-04-09T01:18:34;58.17;;;32.03;;
26951;SDS011;14507;52.418;13.398;2023-04-09T01:21:12;62.83;;;33.92;;
26951;SDS011;14507;52.418;13.398;2023-04-09T01:29:21;65.78;;;35.33;;
26951;SDS011;14507;52.418;13.398;2023-04-09T01:31:48;68.13;;;35.55;;
26951;SDS011;14507;52.418;13.398;2023-04-09T01:34:14;67.28;;;36.00;;
26951;SDS011;14507;52.418;13.398;2023-04-09T01:36:41;64.38;;;34.58;;
26951;SDS011;14507;52.418;13.398;2023-04-09T01:39:12;66.95;;;34.38;;
26951;SDS011;14507;52.418;13.398;2023-04-09T01:41:38;66.30;;;35.17;;
26951;SDS011;14507;52.418;13.398;2023-04-09T01:44:05;64.93;;;34.35;;
26951;SDS011;14507;52.418;13.398;2023-04-09T01:46:32;71.78;;;37.38;;
26951;SDS011;14507;52.418;13.398;2023-04-09T01:48:59;69.13;;;35.22;;
26951;SDS011;14507;52.418;13.398;2023-04-09T01:51:25;69.25;;;36.03;;
26951;SDS011;14507;52.418;13.398;2023-04-09T01:53:51;67.88;;;36.75;;
26951;SDS011;14507;52.418;13.398;2023-04-09T01:56:17;72.38;;;36.60;;
26951;SDS011;14507;52.418;13.398;2023-04-09T01:58:43;69.28;;;36.13;;
26951;SDS011;14507;52.418;13.398;2023-04-09T02:01:09;67.78;;;34.90;;
26951;SDS011;14507;52.418;13.398;2023-04-09T02:03:42;68.45;;;35.13;;
26951;SDS011;14507;52.418;13.398;2023-04-09T02:06:15;63.60;;;34.33;;
26951;SDS011;14507;52.418;13.398;2023-04-09T02:08:51;68.70;;;35.97;;
26951;SDS011;14507;52.418;13.398;2023-04-09T02:11:17;69.60;;;35.28;;
26951;SDS011;14507;52.418;13.398;2023-04-09T02:13:45;72.43;;;36.58;;
26951;SDS011;14507;52.418;13.398;2023-04-09T02:16:13;73.43;;;34.95;;
26951;SDS011;14507;52.418;13.398;2023-04-09T02:18:40;71.45;;;37.15;;
26951;SDS011;14507;52.418;13.398;2023-04-09T02:21:06;70.95;;;36.08;;
26951;SDS011;14507;52.418;13.398;2023-04-09T02:23:32;68.05;;;34.90;;
26951;SDS011;14507;52.418;13.398;2023-04-09T02:25:57;70.30;;;35.47;;
26951;SDS011;14507;52.418;13.398;2023-04-09T02:28:23;71.03;;;36.80;;
26951;SDS011;14507;52.418;13.398;2023-04-09T02:30:49;70.65;;;35.63;;
26951;SDS011;14507;52.418;13.398;2023-04-09T02:33:14;70.05;;;35.60;;
26951;SDS011;14507;52.418;13.398;2023-04-09T02:35:40;68.93;;;35.67;;
26951;SDS011;14507;52.418;13.398;2023-04-09T02:38:06;70.63;;;36.65;;
26951;SDS011;14507;52.418;13.398;2023-04-09T02:40:37;68.75;;;35.83;;
26951;SDS011;14507;52.418;13.398;2023-04-09T02:43:04;69.25;;;34.85;;
26951;SDS011;14507;52.418;13.398;2023-04-09T02:45:30;67.63;;;36.33;;
26951;SDS011;14507;52.418;13.398;2023-04-09T02:47:55;71.18;;;36.58;;
26951;SDS011;14507;52.418;13.398;2023-04-09T02:50:21;71.55;;;35.58;;
26951;SDS011;14507;52.418;13.398;2023-04-09T02:52:47;67.85;;;35.30;;
26951;SDS011;14507;52.418;13.398;2023-04-09T02:55:13;73.35;;;36.75;;
26951;SDS011;14507;52.418;13.398;2023-04-09T02:57:39;66.05;;;35.08;;
26951;SDS011;14507;52.418;13.398;2023-04-09T03:00:05;66.15;;;34.80;;
26951;SDS011;14507;52.418;13.398;2023-04-09T03:02:32;68.73;;;35.70;;
26951;SDS011;14507;52.418;13.398;2023-04-09T03:04:58;67.38;;;34.50;;
26951;SDS011;14507;52.418;13.398;2023-04-09T03:07:23;68.55;;;34.60;;
26951;SDS011;14507;52.418;13.398;2023-04-09T03:09:49;69.78;;;35.00;;
26951;SDS011;14507;52.418;13.398;2023-04-09T03:12:15;68.22;;;35.90;;
26951;SDS011;14507;52.418;13.398;2023-04-09T03:14:40;67.07;;;35.42;;
26951;SDS011;14507;52.418;13.398;2023-04-09T03:17:06;63.17;;;35.15;;
26951;SDS011;14507;52.418;13.398;2023-04-09T03:19:32;60.83;;;33.05;;
26951;SDS011;14507;52.418;13.398;2023-04-09T03:21:57;67.32;;;35.00;;
26951;SDS011;14507;52.418;13.398;2023-04-09T03:24:23;68.10;;;35.47;;
26951;SDS011;14507;52.418;13.398;2023-04-09T03:26:49;66.40;;;35.60;;
26951;SDS011;14507;52.418;13.398;2023-04-09T03:29:14;62.80;;;33.80;;
26951;SDS011;14507;52.418;13.398;2023-04-09T03:31:40;62.55;;;35.25;;
26951;SDS011;14507;52.418;13.398;2023-04-09T03:34:05;64.97;;;35.00;;
26951;SDS011;14507;52.418;13.398;2023-04-09T03:36:31;60.20;;;33.88;;
26951;SDS011;14507;52.418;13.398;2023-04-09T03:38:57;62.53;;;34.22;;
26951;SDS011;14507;52.418;13.398;2023-04-09T03:41:24;66.97;;;36.28;;
26951;SDS011;14507;52.418;13.398;2023-04-09T03:43:50;67.47;;;35.63;;
26951;SDS011;14507;52.418;13.398;2023-04-09T03:46:16;61.38;;;34.17;;
26951;SDS011;14507;52.418;13.398;2023-04-09T03:48:42;64.97;;;34.75;;
26951;SDS011;14507;52.418;13.398;2023-04-09T03:51:12;62.05;;;34.22;;
26951;SDS011;14507;52.418;13.398;2023-04-09T03:53:38;65.95;;;36.00;;
26951;SDS011;14507;52.418;13.398;2023-04-09T03:56:06;69.20;;;36.58;;
26951;SDS011;14507;52.418;13.398;2023-04-09T03:58:32;67.05;;;34.47;;
26951;SDS011;14507;52.418;13.398;2023-04-09T04:00:57;64.30;;;34.10;;
26951;SDS011;14507;52.418;13.398;2023-04-09T04:03:23;65.82;;;35.35;;
26951;SDS011;14507;52.418;13.398;2023-04-09T04:05:49;63.13;;;34.60;;
26951;SDS011;14507;52.418;13.398;2023-04-09T04:08:14;63.13;;;33.88;;
26951;SDS011;14507;52.418;13.398;2023-04-09T04:10:40;64.43;;;35.28;;
26951;SDS011;14507;52.418;13.398;2023-04-09T04:13:06;62.97;;;33.95;;
26951;SDS011;14507;52.418;13.398;2023-04-09T04:15:38;66.18;;;36.20;;
26951;SDS011;14507;52.418;13.398;2023-04-09T04:18:05;63.90;;;35.08;;
26951;SDS011;14507;52.418;13.398;2023-04-09T04:20:31;64.03;;;35.55;;
26951;SDS011;14507;52.418;13.398;2023-04-09T04:22:57;68.68;;;34.72;;
26951;SDS011;14507;52.418;13.398;2023-04-09T04:25:23;66.22;;;36.20;;
26951;SDS011;14507;52.418;13.398;2023-04-09T04:27:48;68.00;;;35.55;;
26951;SDS011;14507;52.418;13.398;2023-04-09T04:30:14;63.63;;;34.40;;
26951;SDS011;14507;52.418;13.398;2023-04-09T04:32:40;67.78;;;34.00;;
26951;SDS011;14507;52.418;13.398;2023-04-09T04:35:05;65.32;;;35.80;;
26951;SDS011;14507;52.418;13.398;2023-04-09T04:37:31;65.30;;;34.15;;
26951;SDS011;14507;52.418;13.398;2023-04-09T04:39:59;62.78;;;34.65;;
26951;SDS011;14507;52.418;13.398;2023-04-09T04:42:25;61.45;;;34.22;;
26951;SDS011;14507;52.418;13.398;2023-04-09T04:44:51;70.30;;;35.45;;
26951;SDS011;14507;52.418;13.398;2023-04-09T04:47:17;63.55;;;34.55;;
26951;SDS011;14507;52.418;13.398;2023-04-09T04:49:43;64.00;;;34.65;;
26951;SDS011;14507;52.418;13.398;2023-04-09T04:52:09;65.68;;;34.70;;
26951;SDS011;14507;52.418;13.398;2023-04-09T04:54:35;63.67;;;35.28;;
26951;SDS011;14507;52.418;13.398;2023-04-09T04:57:01;82.40;;;41.10;;
26951;SDS011;14507;52.418;13.398;2023-04-09T04:59:27;77.15;;;39.30;;
26951;SDS011;14507;52.418;13.398;2023-04-09T05:01:52;71.10;;;37.50;;
26951;SDS011;14507;52.418;13.398;2023-04-09T05:04:18;68.30;;;36.15;;
26951;SDS011;14507;52.418;13.398;2023-04-09T05:06:44;72.78;;;38.50;;
26951;SDS011;14507;52.418;13.398;2023-04-09T05:09:10;68.38;;;38.22;;
26951;SDS011;14507;52.418;13.398;2023-04-09T05:11:36;70.90;;;35.72;;
26951;SDS011;14507;52.418;13.398;2023-04-09T05:14:01;70.85;;;38.17;;
26951;SDS011;14507;52.418;13.398;2023-04-09T05:16:28;71.07;;;37.42;;
26951;SDS011;14507;52.418;13.398;2023-04-09T05:18:54;69.97;;;36.15;;
26951;SDS011;14507;52.418;13.398;2023-04-09T05:21:20;67.07;;;36.92;;
26951;SDS011;14507;52.418;13.398;2023-04-09T05:23:45;67.78;;;36.45;;
26951;SDS011;14507;52.418;13.398;2023-04-09T05:26:11;66.68;;;37.15;;
26951;SDS011;14507;52.418;13.398;2023-04-09T05:28:37;69.65;;;36.58;;
26951;SDS011;14507;52.418;13.398;2023-04-09T05:31:02;70.00;;;36.13;;
26951;SDS011;14507;52.418;13.398;2023-04-09T05:33:28;67.63;;;36.80;;
26951;SDS011;14507;52.418;13.398;2023-04-09T05:35:54;67.88;;;36.50;;
26951;SDS011;14507;52.418;13.398;2023-04-09T05:38:20;69.63;;;37.25;;
26951;SDS011;14507;52.418;13.398;2023-04-09T05:40:45;67.28;;;36.28;;
26951;SDS011;14507;52.418;13.398;2023-04-09T05:43:12;63.25;;;36.05;;
26951;SDS011;14507;52.418;13.398;2023-04-09T05:45:38;66.82;;;36.55;;
26951;SDS011;14507;52.418;13.398;2023-04-09T05:48:04;60.90;;;34.97;;
26951;SDS011;14507;52.418;13.398;2023-04-09T05:50:30;67.07;;;35.35;;
26951;SDS011;14507;52.418;13.398;2023-04-09T05:52:55;65.03;;;35.97;;
26951;SDS011;14507;52.418;13.398;2023-04-09T05:55:21;61.75;;;35.78;;
26951;SDS011;14507;52.418;13.398;2023-04-09T05:57:47;61.53;;;34.33;;
26951;SDS011;14507;52.418;13.398;2023-04-09T06:00:16;63.10;;;35.40;;
26951;SDS011;14507;52.418;13.398;2023-04-09T06:02:42;60.45;;;35.00;;
26951;SDS011;14507;52.418;13.398;2023-04-09T06:05:08;60.83;;;34.17;;
26951;SDS011;14507;52.418;13.398;2023-04-09T06:07:34;59.35;;;34.42;;
26951;SDS011;14507;52.418;13.398;2023-04-09T06:10:00;61.22;;;34.05;;
26951;SDS011;14507;52.418;13.398;2023-04-09T06:12:26;58.20;;;33.70;;
26951;SDS011;14507;52.418;13.398;2023-04-09T06:14:52;56.22;;;34.22;;
26951;SDS011;14507;52.418;13.398;2023-04-09T06:17:17;56.42;;;32.92;;
26951;SDS011;14507;52.418;13.398;2023-04-09T06:19:43;61.33;;;33.55;;
26951;SDS011;14507;52.418;13.398;2023-04-09T06:22:09;56.45;;;32.42;;
26951;SDS011;14507;52.418;13.398;2023-04-09T06:24:37;56.90;;;33.85;;
26951;SDS011;14507;52.418;13.398;2023-04-09T06:27:03;56.50;;;32.75;;
26951;SDS011;14507;52.418;13.398;2023-04-09T06:29:28;55.95;;;32.63;;
26951;SDS011;14507;52.418;13.398;2023-04-09T06:31:54;53.50;;;32.80;;
26951;SDS011;14507;52.418;13.398;2023-04-09T06:34:20;61.00;;;33.92;;
26951;SDS011;14507;52.418;13.398;2023-04-09T06:36:45;57.13;;;33.45;;
26951;SDS011;14507;52.418;13.398;2023-04-09T06:39:11;54.65;;;32.35;;
26951;SDS011;14507;52.418;13.398;2023-04-09T06:41:36;53.30;;;31.92;;
26951;SDS011;14507;52.418;13.398;2023-04-09T06:44:02;52.10;;;30.23;;
26951;SDS011;14507;52.418;13.398;2023-04-09T06:46:28;55.08;;;31.33;;
26951;SDS011;14507;52.418;13.398;2023-04-09T06:48:53;53.42;;;30.40;;
26951;SDS011;14507;52.418;13.398;2023-04-09T06:51:19;49.95;;;30.55;;
26951;SDS011;14507;52.418;13.398;2023-04-09T06:53:45;50.53;;;30.40;;
26951;SDS011;14507;52.418;13.398;2023-04-09T06:56:12;49.20;;;29.63;;
26951;SDS011;14507;52.418;13.398;2023-04-09T06:58:37;50.25;;;30.98;;
26951;SDS011;14507;52.418;13.398;2023-04-09T07:01:03;50.50;;;30.30;;
26951;SDS011;14507;52.418;13.398;2023-04-09T07:03:29;50.13;;;30.30;;
26951;SDS011;14507;52.418;13.398;2023-04-09T07:05:55;48.80;;;30.42;;
26951;SDS011;14507;52.418;13.398;2023-04-09T07:08:21;49.83;;;31.02;;
26951;SDS011;14507;52.418;13.398;2023-04-09T07:10:47;51.03;;;31.60;;
26951;SDS011;14507;52.418;13.398;2023-04-09T07:13:13;50.97;;;30.90;;
26951;SDS011;14507;52.418;13.398;2023-04-09T07:15:39;46.63;;;29.95;;
26951;SDS011;14507;52.418;13.398;2023-04-09T07:18:04;50.83;;;29.75;;
26951;SDS011;14507;52.418;13.398;2023-04-09T07:20:30;49.08;;;30.35;;
26951;SDS011;14507;52.418;13.398;2023-04-09T07:22:56;51.70;;;30.40;;
26951;SDS011;14507;52.418;13.398;2023-04-09T07:25:21;49.75;;;29.85;;
26951;SDS011;14507;52.418;13.398;2023-04-09T07:27:47;52.65;;;31.02;;
26951;SDS011;14507;52.418;13.398;2023-04-09T07:30:13;51.25;;;30.65;;
26951;SDS011;14507;52.418;13.398;2023-04-09T07:32:39;47.83;;;30.45;;
26951;SDS011;14507;52.418;13.398;2023-04-09T07:35:06;54.00;;;32.63;;
26951;SDS011;14507;52.418;13.398;2023-04-09T07:39:59;51.65;;;30.85;;
26951;SDS011;14507;52.418;13.398;2023-04-09T07:42:25;51.75;;;30.38;;
26951;SDS011;14507;52.418;13.398;2023-04-09T07:44:52;49.95;;;30.75;;
26951;SDS011;14507;52.418;13.398;2023-04-09T07:47:17;54.05;;;31.50;;
26951;SDS011;14507;52.418;13.398;2023-04-09T07:49:43;51.45;;;31.30;;
26951;SDS011;14507;52.418;13.398;2023-04-09T07:52:08;51.35;;;32.03;;
26951;SDS011;14507;52.418;13.398;2023-04-09T07:54:34;51.75;;;31.75;;
26951;SDS011;14507;52.418;13.398;2023-04-09T07:57:00;52.63;;;32.20;;
26951;SDS011;14507;52.418;13.398;2023-04-09T07:59:26;51.15;;;31.58;;
26951;SDS011;14507;52.418;13.398;2023-04-09T08:01:52;56.72;;;32.45;;
26951;SDS011;14507;52.418;13.398;2023-04-09T08:04:18;52.05;;;33.08;;
26951;SDS011;14507;52.418;13.398;2023-04-09T08:06:43;54.28;;;32.75;;
26951;SDS011;14507;52.418;13.398;2023-04-09T08:09:18;55.90;;;33.50;;
26951;SDS011;14507;52.418;13.398;2023-04-09T08:11:44;48.70;;;30.80;;
26951;SDS011;14507;52.418;13.398;2023-04-09T08:14:11;48.63;;;31.35;;
26951;SDS011;14507;52.418;13.398;2023-04-09T08:16:46;45.28;;;28.83;;
26951;SDS011;14507;52.418;13.398;2023-04-09T08:19:14;45.38;;;27.95;;
26951;SDS011;14507;52.418;13.398;2023-04-09T08:21:41;42.38;;;28.50;;
26951;SDS011;14507;52.418;13.398;2023-04-09T08:24:07;45.90;;;27.55;;
26951;SDS011;14507;52.418;13.398;2023-04-09T08:26:35;42.03;;;27.80;;
26951;SDS011;14507;52.418;13.398;2023-04-09T08:29:01;43.55;;;27.50;;
26951;SDS011;14507;52.418;13.398;2023-04-09T08:31:27;39.22;;;26.00;;
26951;SDS011;14507;52.418;13.398;2023-04-09T08:33:52;40.63;;;26.38;;
26951;SDS011;14507;52.418;13.398;2023-04-09T08:36:18;37.65;;;25.48;;
26951;SDS011;14507;52.418;13.398;2023-04-09T08:38:45;39.53;;;26.05;;
26951;SDS011;14507;52.418;13.398;2023-04-09T08:41:21;37.75;;;25.83;;
26951;SDS011;14507;52.418;13.398;2023-04-09T08:43:48;38.03;;;24.40;;
26951;SDS011;14507;52.418;13.398;2023-04-09T08:46:15;40.22;;;26.08;;
26951;SDS011;14507;52.418;13.398;2023-04-09T08:48:44;38.30;;;26.17;;
26951;SDS011;14507;52.418;13.398;2023-04-09T08:51:11;40.45;;;25.73;;
26951;SDS011;14507;52.418;13.398;2023-04-09T08:53:42;35.85;;;24.40;;
26951;SDS011;14507;52.418;13.398;2023-04-09T08:56:14;39.85;;;25.77;;
26951;SDS011;14507;52.418;13.398;2023-04-09T08:58:44;37.30;;;24.92;;
26951;SDS011;14507;52.418;13.398;2023-04-09T09:01:20;35.75;;;23.83;;
26951;SDS011;14507;52.418;13.398;2023-04-09T09:03:52;38.42;;;24.80;;
26951;SDS011;14507;52.418;13.398;2023-04-09T09:06:26;37.75;;;24.77;;
26951;SDS011;14507;52.418;13.398;2023-04-09T09:11:36;39.03;;;26.33;;
26951;SDS011;14507;52.418;13.398;2023-04-09T09:14:09;39.30;;;25.30;;
26951;SDS011;14507;52.418;13.398;2023-04-09T09:16:36;36.65;;;24.70;;
26951;SDS011;14507;52.418;13.398;2023-04-09T09:19:06;39.13;;;25.67;;
26951;SDS011;14507;52.418;13.398;2023-04-09T09:21:33;37.33;;;25.08;;
26951;SDS011;14507;52.418;13.398;2023-04-09T09:24:00;38.65;;;27.13;;
26951;SDS011;14507;52.418;13.398;2023-04-09T09:26:27;40.10;;;25.95;;
26951;SDS011;14507;52.418;13.398;2023-04-09T09:28:54;38.47;;;25.10;;
26951;SDS011;14507;52.418;13.398;2023-04-09T09:31:24;36.08;;;24.17;;
26951;SDS011;14507;52.418;13.398;2023-04-09T09:33:50;37.60;;;25.08;;
26951;SDS011;14507;52.418;13.398;2023-04-09T09:36:30;37.67;;;26.02;;
26951;SDS011;14507;52.418;13.398;2023-04-09T09:38:58;38.72;;;26.20;;
26951;SDS011;14507;52.418;13.398;2023-04-09T09:41:27;37.95;;;24.92;;
26951;SDS011;14507;52.418;13.398;2023-04-09T09:43:53;38.35;;;24.55;;
26951;SDS011;14507;52.418;13.398;2023-04-09T09:46:19;37.17;;;24.60;;
26951;SDS011;14507;52.418;13.398;2023-04-09T09:48:46;39.78;;;25.83;;
26951;SDS011;14507;52.418;13.398;2023-04-09T09:51:12;38.80;;;24.80;;
26951;SDS011;14507;52.418;13.398;2023-04-09T09:53:40;38.08;;;25.73;;
26951;SDS011;14507;52.418;13.398;2023-04-09T09:56:11;38.63;;;25.33;;
26951;SDS011;14507;52.418;13.398;2023-04-09T09:58:40;39.38;;;25.48;;
26951;SDS011;14507;52.418;13.398;2023-04-09T10:01:13;33.72;;;23.42;;
26951;SDS011;14507;52.418;13.398;2023-04-09T10:03:40;35.45;;;23.75;;
26951;SDS011;14507;52.418;13.398;2023-04-09T10:06:08;35.20;;;22.65;;
26951;SDS011;14507;52.418;13.398;2023-04-09T10:08:35;35.13;;;22.50;;
26951;SDS011;14507;52.418;13.398;2023-04-09T10:11:02;39.58;;;24.85;;
26951;SDS011;14507;52.418;13.398;2023-04-09T10:13:37;36.30;;;24.77;;
26951;SDS011;14507;52.418;13.398;2023-04-09T10:16:05;38.40;;;25.63;;
26951;SDS011;14507;52.418;13.398;2023-04-09T10:18:32;39.10;;;25.80;;
26951;SDS011;14507;52.418;13.398;2023-04-09T10:23:43;38.75;;;25.30;;
26951;SDS011;14507;52.418;13.398;2023-04-09T10:26:12;37.45;;;25.55;;
26951;SDS011;14507;52.418;13.398;2023-04-09T10:28:37;38.80;;;26.13;;
26951;SDS011;14507;52.418;13.398;2023-04-09T10:31:04;37.08;;;24.10;;
26951;SDS011;14507;52.418;13.398;2023-04-09T10:33:31;41.03;;;26.15;;
26951;SDS011;14507;52.418;13.398;2023-04-09T10:36:01;40.50;;;25.70;;
26951;SDS011;14507;52.418;13.398;2023-04-09T10:40:58;38.38;;;24.30;;
26951;SDS011;14507;52.418;13.398;2023-04-09T10:43:30;37.40;;;25.33;;
26951;SDS011;14507;52.418;13.398;2023-04-09T10:45:57;36.30;;;24.38;;
26951;SDS011;14507;52.418;13.398;2023-04-09T10:48:23;40.45;;;25.48;;
26951;SDS011;14507;52.418;13.398;2023-04-09T10:50:50;40.30;;;26.67;;
26951;SDS011;14507;52.418;13.398;2023-04-09T10:53:22;38.28;;;25.13;;
26951;SDS011;14507;52.418;13.398;2023-04-09T10:55:51;41.45;;;25.67;;
26951;SDS011;14507;52.418;13.398;2023-04-09T10:58:17;40.05;;;24.83;;
26951;SDS011;14507;52.418;13.398;2023-04-09T11:00:44;38.25;;;24.98;;
26951;SDS011;14507;52.418;13.398;2023-04-09T11:03:27;40.08;;;25.25;;
26951;SDS011;14507;52.418;13.398;2023-04-09T11:06:02;40.40;;;25.73;;
26951;SDS011;14507;52.418;13.398;2023-04-09T11:08:34;40.30;;;24.13;;
26951;SDS011;14507;52.418;13.398;2023-04-09T11:11:00;38.40;;;24.88;;
26951;SDS011;14507;52.418;13.398;2023-04-09T11:13:27;39.38;;;25.45;;
26951;SDS011;14507;52.418;13.398;2023-04-09T11:15:54;39.10;;;25.45;;
26951;SDS011;14507;52.418;13.398;2023-04-09T11:18:22;37.35;;;23.67;;
26951;SDS011;14507;52.418;13.398;2023-04-09T11:20:55;36.13;;;23.10;;
26951;SDS011;14507;52.418;13.398;2023-04-09T11:23:21;33.55;;;21.92;;
26951;SDS011;14507;52.418;13.398;2023-04-09T11:25:48;38.15;;;23.58;;
26951;SDS011;14507;52.418;13.398;2023-04-09T11:28:15;36.42;;;22.05;;
26951;SDS011;14507;52.418;13.398;2023-04-09T11:30:40;35.63;;;22.90;;
26951;SDS011;14507;52.418;13.398;2023-04-09T11:33:07;37.42;;;23.95;;
26951;SDS011;14507;52.418;13.398;2023-04-09T11:35:33;33.05;;;21.88;;
26951;SDS011;14507;52.418;13.398;2023-04-09T11:38:06;33.67;;;21.75;;
26951;SDS011;14507;52.418;13.398;2023-04-09T11:40:33;31.95;;;20.42;;
26951;SDS011;14507;52.418;13.398;2023-04-09T11:42:58;32.83;;;20.75;;
26951;SDS011;14507;52.418;13.398;2023-04-09T11:45:26;30.02;;;19.45;;
26951;SDS011;14507;52.418;13.398;2023-04-09T11:47:52;36.33;;;23.20;;
26951;SDS011;14507;52.418;13.398;2023-04-09T11:50:19;33.05;;;21.25;;
26951;SDS011;14507;52.418;13.398;2023-04-09T11:52:46;33.75;;;20.25;;
26951;SDS011;14507;52.418;13.398;2023-04-09T11:55:12;34.58;;;20.48;;
26951;SDS011;14507;52.418;13.398;2023-04-09T11:57:51;33.63;;;20.83;;
26951;SDS011;14507;52.418;13.398;2023-04-09T12:00:21;33.75;;;20.40;;
26951;SDS011;14507;52.418;13.398;2023-04-09T12:02:49;31.20;;;20.20;;
26951;SDS011;14507;52.418;13.398;2023-04-09T12:05:26;30.00;;;19.13;;
26951;SDS011;14507;52.418;13.398;2023-04-09T12:10:31;29.58;;;17.98;;
26951;SDS011;14507;52.418;13.398;2023-04-09T12:13:01;27.27;;;18.05;;
26951;SDS011;14507;52.418;13.398;2023-04-09T12:15:31;29.65;;;17.55;;
26951;SDS011;14507;52.418;13.398;2023-04-09T12:17:58;28.15;;;17.88;;
26951;SDS011;14507;52.418;13.398;2023-04-09T12:20:27;25.60;;;15.88;;
26951;SDS011;14507;52.418;13.398;2023-04-09T12:22:56;28.55;;;16.92;;
26951;SDS011;14507;52.418;13.398;2023-04-09T12:25:24;29.60;;;17.95;;
26951;SDS011;14507;52.418;13.398;2023-04-09T12:27:50;27.40;;;16.52;;
26951;SDS011;14507;52.418;13.398;2023-04-09T12:30:15;25.80;;;17.58;;
26951;SDS011;14507;52.418;13.398;2023-04-09T12:32:41;25.58;;;16.20;;
26951;SDS011;14507;52.418;13.398;2023-04-09T12:35:08;29.43;;;17.60;;
26951;SDS011;14507;52.418;13.398;2023-04-09T12:37:34;28.42;;;18.95;;
26951;SDS011;14507;52.418;13.398;2023-04-09T12:40:00;33.35;;;19.17;;
26951;SDS011;14507;52.418;13.398;2023-04-09T12:42:25;30.25;;;18.67;;
26951;SDS011;14507;52.418;13.398;2023-04-09T12:44:51;28.48;;;17.20;;
26951;SDS011;14507;52.418;13.398;2023-04-09T12:47:17;29.10;;;17.92;;
26951;SDS011;14507;52.418;13.398;2023-04-09T12:49:43;27.40;;;17.67;;
26951;SDS011;14507;52.418;13.398;2023-04-09T12:52:10;31.05;;;19.40;;
26951;SDS011;14507;52.418;13.398;2023-04-09T12:54:36;27.83;;;17.23;;
26951;SDS011;14507;52.418;13.398;2023-04-09T12:57:04;30.05;;;18.00;;
26951;SDS011;14507;52.418;13.398;2023-04-09T12:59:30;26.48;;;15.68;;
26951;SDS011;14507;52.418;13.398;2023-04-09T13:01:55;26.98;;;16.33;;
26951;SDS011;14507;52.418;13.398;2023-04-09T13:04:21;27.92;;;15.75;;
26951;SDS011;14507;52.418;13.398;2023-04-09T13:06:47;27.42;;;15.80;;
26951;SDS011;14507;52.418;13.398;2023-04-09T13:09:12;23.75;;;13.57;;
26951;SDS011;14507;52.418;13.398;2023-04-09T13:11:38;22.67;;;12.75;;
26951;SDS011;14507;52.418;13.398;2023-04-09T13:14:04;20.48;;;12.38;;
26951;SDS011;14507;52.418;13.398;2023-04-09T13:16:30;29.20;;;16.05;;
26951;SDS011;14507;52.418;13.398;2023-04-09T13:18:56;24.08;;;14.52;;
26951;SDS011;14507;52.418;13.398;2023-04-09T13:21:22;21.30;;;12.98;;
26951;SDS011;14507;52.418;13.398;2023-04-09T13:23:48;25.02;;;13.43;;
26951;SDS011;14507;52.418;13.398;2023-04-09T13:26:13;21.60;;;13.43;;
26951;SDS011;14507;52.418;13.398;2023-04-09T13:28:39;21.15;;;13.05;;
26951;SDS011;14507;52.418;13.398;2023-04-09T13:31:05;17.02;;;10.75;;
26951;SDS011;14507;52.418;13.398;2023-04-09T13:33:31;18.00;;;11.50;;
26951;SDS011;14507;52.418;13.398;2023-04-09T13:35:56;21.80;;;13.85;;
26951;SDS011;14507;52.418;13.398;2023-04-09T13:38:22;22.95;;;13.50;;
26951;SDS011;14507;52.418;13.398;2023-04-09T13:40:47;20.35;;;12.05;;
26951;SDS011;14507;52.418;13.398;2023-04-09T13:43:13;17.52;;;10.48;;
26951;SDS011;14507;52.418;13.398;2023-04-09T13:45:39;18.67;;;11.95;;
26951;SDS011;14507;52.418;13.398;2023-04-09T13:48:05;22.30;;;13.95;;
26951;SDS011;14507;52.418;13.398;2023-04-09T13:50:31;25.20;;;14.98;;
26951;SDS011;14507;52.418;13.398;2023-04-09T13:52:57;19.75;;;12.45;;
26951;SDS011;14507;52.418;13.398;2023-04-09T13:55:23;20.50;;;13.50;;
26951;SDS011;14507;52.418;13.398;2023-04-09T13:57:48;19.20;;;12.52;;
26951;SDS011;14507;52.418;13.398;2023-04-09T14:00:14;22.58;;;13.30;;
26951;SDS011;14507;52.418;13.398;2023-04-09T14:02:40;19.20;;;12.48;;
26951;SDS011;14507;52.418;13.398;2023-04-09T14:05:05;19.13;;;11.70;;
26951;SDS011;14507;52.418;13.398;2023-04-09T14:07:31;22.17;;;14.10;;
26951;SDS011;14507;52.418;13.398;2023-04-09T14:09:57;20.75;;;12.00;;
26951;SDS011;14507;52.418;13.398;2023-04-09T14:12:23;19.55;;;12.60;;
26951;SDS011;14507;52.418;13.398;2023-04-09T14:14:48;18.67;;;11.05;;
26951;SDS011;14507;52.418;13.398;2023-04-09T14:17:14;15.98;;;10.30;;
26951;SDS011;14507;52.418;13.398;2023-04-09T14:19:40;16.55;;;10.32;;
26951;SDS011;14507;52.418;13.398;2023-04-09T14:22:05;18.17;;;11.15;;
26951;SDS011;14507;52.418;13.398;2023-04-09T14:24:32;19.38;;;12.27;;
26951;SDS011;14507;52.418;13.398;2023-04-09T14:27:04;21.05;;;13.23;;